sensor_id;sensor_type;location;lat;lon;timestamp;temperature;humidity
3701;DHT22;1866;48.374;10.766;2023-03-16T00:00:41;-0.20;26.80
3701;DHT22;1866;48.374;10.766;2023-03-16T00:03:08;-0.30;35.90
3701;DHT22;1866;48.374;10.766;2023-03-16T00:05:35;-0.20;71.40
3701;DHT22;1866;48.374;10.766;2023-03-16T00:08:02;-0.30;60.40
3701;DHT22;1866;48.374;10.766;2023-03-16T00:10:29;-0.50;62.60
3701;DHT22;1866;48.374;10.766;2023-03-16T00:12:56;-0.80;51.80
3701;DHT22;1866;48.374;10.766;2023-03-16T00:15:24;-0.50;99.90
3701;DHT22;1866;48.374;10.766;2023-03-16T00:17:51;-0.50;85.10
3701;DHT22;1866;48.374;10.766;2023-03-16T00:20:19;-0.50;86.20
3701;DHT22;1866;48.374;10.766;2023-03-16T00:22:47;-0.40;75.40
3701;DHT22;1866;48.374;10.766;2023-03-16T00:25:14;-0.70;38.70
3701;DHT22;1866;48.374;10.766;2023-03-16T00:27:41;-0.90;61.60
3701;DHT22;1866;48.374;10.766;2023-03-16T00:30:09;-0.70;99.90
3701;DHT22;1866;48.374;10.766;2023-03-16T00:32:37;-0.90;90.30
3701;DHT22;1866;48.374;10.766;2023-03-16T00:35:05;-1.10;97.90
3701;DHT22;1866;48.374;10.766;2023-03-16T00:37:32;-1.10;99.90
3701;DHT22;1866;48.374;10.766;2023-03-16T00:39:59;-1.20;99.90
3701;DHT22;1866;48.374;10.766;2023-03-16T00:42:28;-1.10;99.90
3701;DHT22;1866;48.374;10.766;2023-03-16T00:44:56;-0.90;99.90
3701;DHT22;1866;48.374;10.766;2023-03-16T00:47:24;-0.80;99.90
3701;DHT22;1866;48.374;10.766;2023-03-16T00:49:54;-0.60;99.90
3701;DHT22;1866;48.374;10.766;2023-03-16T00:52:21;-0.60;99.90
3701;DHT22;1866;48.374;10.766;2023-03-16T00:54:49;-0.60;94.50
3701;DHT22;1866;48.374;10.766;2023-03-16T00:57:17;-0.60;71.60
3701;DHT22;1866;48.374;10.766;2023-03-16T00:59:44;-0.70;62.00
3701;DHT22;1866;48.374;10.766;2023-03-16T01:02:12;-0.80;64.00
3701;DHT22;1866;48.374;10.766;2023-03-16T01:04:39;-0.90;65.50
3701;DHT22;1866;48.374;10.766;2023-03-16T01:07:09;-0.90;86.10
3701;DHT22;1866;48.374;10.766;2023-03-16T01:09:37;-0.70;71.30
3701;DHT22;1866;48.374;10.766;2023-03-16T01:12:05;-0.80;67.50
3701;DHT22;1866;48.374;10.766;2023-03-16T01:14:32;-0.80;80.20
3701;DHT22;1866;48.374;10.766;2023-03-16T01:16:59;-0.80;91.40
3701;DHT22;1866;48.374;10.766;2023-03-16T01:19:27;-0.80;81.30
3701;DHT22;1866;48.374;10.766;2023-03-16T01:21:54;-0.70;92.80
3701;DHT22;1866;48.374;10.766;2023-03-16T01:24:22;-0.70;58.90
3701;DHT22;1866;48.374;10.766;2023-03-16T01:26:49;-0.70;58.40
3701;DHT22;1866;48.374;10.766;2023-03-16T01:29:17;-0.70;40.30
3701;DHT22;1866;48.374;10.766;2023-03-16T01:31:44;-0.90;36.40
3701;DHT22;1866;48.374;10.766;2023-03-16T01:34:10;-0.90;41.00
3701;DHT22;1866;48.374;10.766;2023-03-16T01:36:41;-1.20;55.40
3701;DHT22;1866;48.374;10.766;2023-03-16T01:39:08;-0.90;98.10
3701;DHT22;1866;48.374;10.766;2023-03-16T01:41:37;-0.90;92.80
3701;DHT22;1866;48.374;10.766;2023-03-16T01:44:04;-1.30;67.90
3701;DHT22;1866;48.374;10.766;2023-03-16T01:46:31;-1.40;90.10
3701;DHT22;1866;48.374;10.766;2023-03-16T01:49:05;-1.50;97.00
3701;DHT22;1866;48.374;10.766;2023-03-16T01:51:37;-1.60;99.90
3701;DHT22;1866;48.374;10.766;2023-03-16T01:54:13;-1.60;99.90
3701;DHT22;1866;48.374;10.766;2023-03-16T01:56:46;-1.70;99.90
3701;DHT22;1866;48.374;10.766;2023-03-16T01:59:17;-1.70;99.90
3701;DHT22;1866;48.374;10.766;2023-03-16T02:01:46;-1.30;99.90
3701;DHT22;1866;48.374;10.766;2023-03-16T02:04:20;-1.10;99.90
3701;DHT22;1866;48.374;10.766;2023-03-16T02:06:49;-1.10;99.90
3701;DHT22;1866;48.374;10.766;2023-03-16T02:09:17;-1.40;96.50
3701;DHT22;1866;48.374;10.766;2023-03-16T02:11:46;-1.60;99.90
3701;DHT22;1866;48.374;10.766;2023-03-16T02:14:13;-1.70;99.90
3701;DHT22;1866;48.374;10.766;2023-03-16T02:16:41;-1.60;99.90
3701;DHT22;1866;48.374;10.766;2023-03-16T02:19:11;-1.70;99.90
3701;DHT22;1866;48.374;10.766;2023-03-16T02:21:44;-1.90;99.90
3701;DHT22;1866;48.374;10.766;2023-03-16T02:24:11;-1.90;99.90
3701;DHT22;1866;48.374;10.766;2023-03-16T02:26:43;-2.00;99.90
3701;DHT22;1866;48.374;10.766;2023-03-16T02:29:22;-1.80;99.90
3701;DHT22;1866;48.374;10.766;2023-03-16T02:31:56;-1.60;99.90
3701;DHT22;1866;48.374;10.766;2023-03-16T02:34:26;-1.70;99.90
3701;DHT22;1866;48.374;10.766;2023-03-16T02:36:53;-1.90;99.90
3701;DHT22;1866;48.374;10.766;2023-03-16T02:39:22;-1.80;99.90
3701;DHT22;1866;48.374;10.766;2023-03-16T02:41:49;-1.70;99.90
3701;DHT22;1866;48.374;10.766;2023-03-16T02:44:19;-1.60;99.90
3701;DHT22;1866;48.374;10.766;2023-03-16T02:46:50;-1.50;99.90
3701;DHT22;1866;48.374;10.766;2023-03-16T02:49:21;-1.50;99.90
3701;DHT22;1866;48.374;10.766;2023-03-16T02:51:50;-1.50;99.90
3701;DHT22;1866;48.374;10.766;2023-03-16T02:54:17;-1.60;94.00
3701;DHT22;1866;48.374;10.766;2023-03-16T02:56:44;-1.80;89.50
3701;DHT22;1866;48.374;10.766;2023-03-16T02:59:11;-1.90;99.90
3701;DHT22;1866;48.374;10.766;2023-03-16T03:01:37;-1.70;99.90
3701;DHT22;1866;48.374;10.766;2023-03-16T03:04:05;-1.90;99.90
3701;DHT22;1866;48.374;10.766;2023-03-16T03:06:33;-2.00;99.90
3701;DHT22;1866;48.374;10.766;2023-03-16T03:09:00;-2.20;99.90
3701;DHT22;1866;48.374;10.766;2023-03-16T03:11:27;-2.30;99.90
3701;DHT22;1866;48.374;10.766;2023-03-16T03:13:54;-2.30;99.90
3701;DHT22;1866;48.374;10.766;2023-03-16T03:16:21;-2.30;99.90
3701;DHT22;1866;48.374;10.766;2023-03-16T03:18:49;-2.40;99.90
3701;DHT22;1866;48.374;10.766;2023-03-16T03:21:17;-2.40;99.90
3701;DHT22;1866;48.374;10.766;2023-03-16T03:23:45;-2.40;99.90
3701;DHT22;1866;48.374;10.766;2023-03-16T03:26:12;-2.50;99.90
3701;DHT22;1866;48.374;10.766;2023-03-16T03:28:40;-2.50;99.90
3701;DHT22;1866;48.374;10.766;2023-03-16T03:31:06;-2.50;99.90
3701;DHT22;1866;48.374;10.766;2023-03-16T03:33:33;-2.40;99.90
3701;DHT22;1866;48.374;10.766;2023-03-16T03:36:00;-2.50;99.90
3701;DHT22;1866;48.374;10.766;2023-03-16T03:38:27;-2.50;99.90
3701;DHT22;1866;48.374;10.766;2023-03-16T03:40:55;-2.50;99.90
3701;DHT22;1866;48.374;10.766;2023-03-16T03:43:24;-2.40;99.90
3701;DHT22;1866;48.374;10.766;2023-03-16T03:45:54;-2.50;99.90
3701;DHT22;1866;48.374;10.766;2023-03-16T03:48:22;-2.40;99.90
3701;DHT22;1866;48.374;10.766;2023-03-16T03:50:49;-2.50;99.90
3701;DHT22;1866;48.374;10.766;2023-03-16T03:53:16;-2.60;99.90
3701;DHT22;1866;48.374;10.766;2023-03-16T03:55:43;-2.40;99.90
3701;DHT22;1866;48.374;10.766;2023-03-16T03:58:11;-2.30;99.90
3701;DHT22;1866;48.374;10.766;2023-03-16T04:00:38;-2.30;99.90
3701;DHT22;1866;48.374;10.766;2023-03-16T04:03:05;-2.50;99.90
3701;DHT22;1866;48.374;10.766;2023-03-16T04:05:31;-2.40;99.90
3701;DHT22;1866;48.374;10.766;2023-03-16T04:07:58;-2.30;99.90
3701;DHT22;1866;48.374;10.766;2023-03-16T04:10:27;-2.40;99.90
3701;DHT22;1866;48.374;10.766;2023-03-16T04:12:55;-2.30;99.90
3701;DHT22;1866;48.374;10.766;2023-03-16T04:15:23;-2.30;99.90
3701;DHT22;1866;48.374;10.766;2023-03-16T04:17:50;-2.40;99.90
3701;DHT22;1866;48.374;10.766;2023-03-16T04:20:18;-2.50;99.90
3701;DHT22;1866;48.374;10.766;2023-03-16T04:22:45;-2.50;99.90
3701;DHT22;1866;48.374;10.766;2023-03-16T04:25:14;-2.40;99.90
3701;DHT22;1866;48.374;10.766;2023-03-16T04:27:42;-2.50;99.90
3701;DHT22;1866;48.374;10.766;2023-03-16T04:30:11;-2.50;99.90
3701;DHT22;1866;48.374;10.766;2023-03-16T04:32:39;-2.50;99.90
3701;DHT22;1866;48.374;10.766;2023-03-16T04:35:07;-2.50;99.90
3701;DHT22;1866;48.374;10.766;2023-03-16T04:37:35;-2.40;99.90
3701;DHT22;1866;48.374;10.766;2023-03-16T04:40:02;-2.40;99.90
3701;DHT22;1866;48.374;10.766;2023-03-16T04:42:34;-2.30;99.90
3701;DHT22;1866;48.374;10.766;2023-03-16T04:45:01;-2.40;99.90
3701;DHT22;1866;48.374;10.766;2023-03-16T04:47:28;-2.40;99.90
3701;DHT22;1866;48.374;10.766;2023-03-16T04:49:59;-2.30;99.90
3701;DHT22;1866;48.374;10.766;2023-03-16T04:52:27;-2.20;99.90
3701;DHT22;1866;48.374;10.766;2023-03-16T04:54:54;-2.10;99.90
3701;DHT22;1866;48.374;10.766;2023-03-16T04:57:22;-2.30;99.90
3701;DHT22;1866;48.374;10.766;2023-03-16T04:59:49;-2.40;99.90
3701;DHT22;1866;48.374;10.766;2023-03-16T05:02:16;-2.20;99.90
3701;DHT22;1866;48.374;10.766;2023-03-16T05:04:44;-2.20;99.90
3701;DHT22;1866;48.374;10.766;2023-03-16T05:07:13;-2.00;99.90
3701;DHT22;1866;48.374;10.766;2023-03-16T05:09:40;-2.20;99.90
3701;DHT22;1866;48.374;10.766;2023-03-16T05:12:08;-2.30;99.90
3701;DHT22;1866;48.374;10.766;2023-03-16T05:14:35;-2.20;99.90
3701;DHT22;1866;48.374;10.766;2023-03-16T05:17:02;-2.00;99.90
3701;DHT22;1866;48.374;10.766;2023-03-16T05:19:29;-2.10;99.90
3701;DHT22;1866;48.374;10.766;2023-03-16T05:21:56;-2.30;99.90
3701;DHT22;1866;48.374;10.766;2023-03-16T05:24:24;-2.40;99.90
3701;DHT22;1866;48.374;10.766;2023-03-16T05:26:51;-2.40;99.90
3701;DHT22;1866;48.374;10.766;2023-03-16T05:29:18;-2.30;99.90
3701;DHT22;1866;48.374;10.766;2023-03-16T05:31:45;-2.30;99.90
3701;DHT22;1866;48.374;10.766;2023-03-16T05:34:13;-2.30;99.90
3701;DHT22;1866;48.374;10.766;2023-03-16T05:36:40;-2.00;99.90
3701;DHT22;1866;48.374;10.766;2023-03-16T05:39:07;-1.80;99.90
3701;DHT22;1866;48.374;10.766;2023-03-16T05:41:35;-1.80;99.90
3701;DHT22;1866;48.374;10.766;2023-03-16T05:44:02;-1.80;99.90
3701;DHT22;1866;48.374;10.766;2023-03-16T05:46:30;-1.90;99.90
3701;DHT22;1866;48.374;10.766;2023-03-16T05:48:57;-1.90;99.90
3701;DHT22;1866;48.374;10.766;2023-03-16T05:51:24;-1.60;99.90
3701;DHT22;1866;48.374;10.766;2023-03-16T05:53:52;-1.40;99.90
3701;DHT22;1866;48.374;10.766;2023-03-16T05:56:22;-1.50;99.90
3701;DHT22;1866;48.374;10.766;2023-03-16T05:58:50;-1.30;99.90
3701;DHT22;1866;48.374;10.766;2023-03-16T06:01:17;-1.10;94.80
3701;DHT22;1866;48.374;10.766;2023-03-16T06:03:45;-1.00;68.70
3701;DHT22;1866;48.374;10.766;2023-03-16T06:06:13;-1.10;30.90
3701;DHT22;1866;48.374;10.766;2023-03-16T06:08:41;-1.10;66.90
3701;DHT22;1866;48.374;10.766;2023-03-16T06:11:08;-0.90;56.60
3701;DHT22;1866;48.374;10.766;2023-03-16T06:13:36;-0.70;34.10
3701;DHT22;1866;48.374;10.766;2023-03-16T06:16:04;-0.60;14.30
3701;DHT22;1866;48.374;10.766;2023-03-16T06:18:31;-0.50;1.00
3701;DHT22;1866;48.374;10.766;2023-03-16T06:20:58;-0.50;19.00
3701;DHT22;1866;48.374;10.766;2023-03-16T06:23:25;-0.50;20.70
3701;DHT22;1866;48.374;10.766;2023-03-16T06:25:52;-0.60;21.80
3701;DHT22;1866;48.374;10.766;2023-03-16T06:28:20;-0.50;45.80
3701;DHT22;1866;48.374;10.766;2023-03-16T06:30:47;-0.40;52.60
3701;DHT22;1866;48.374;10.766;2023-03-16T06:33:15;-0.30;48.30
3701;DHT22;1866;48.374;10.766;2023-03-16T06:35:42;-0.20;40.50
3701;DHT22;1866;48.374;10.766;2023-03-16T06:38:09;-0.10;33.70
3701;DHT22;1866;48.374;10.766;2023-03-16T06:40:36;0.00;26.70
3701;DHT22;1866;48.374;10.766;2023-03-16T06:43:02;0.10;5.10
3701;DHT22;1866;48.374;10.766;2023-03-16T06:45:30;0.20;1.00
3701;DHT22;1866;48.374;10.766;2023-03-16T06:47:57;0.20;1.00
3701;DHT22;1866;48.374;10.766;2023-03-16T06:50:26;0.40;7.20
3701;DHT22;1866;48.374;10.766;2023-03-16T06:52:53;0.40;12.20
3701;DHT22;1866;48.374;10.766;2023-03-16T06:55:20;0.60;20.20
3701;DHT22;1866;48.374;10.766;2023-03-16T06:57:47;0.60;11.70
3701;DHT22;1866;48.374;10.766;2023-03-16T07:00:14;0.80;1.00
3701;DHT22;1866;48.374;10.766;2023-03-16T07:02:41;0.80;1.00
3701;DHT22;1866;48.374;10.766;2023-03-16T07:05:09;0.80;14.90
3701;DHT22;1866;48.374;10.766;2023-03-16T07:07:39;0.90;25.40
3701;DHT22;1866;48.374;10.766;2023-03-16T07:10:08;1.00;28.00
3701;DHT22;1866;48.374;10.766;2023-03-16T07:12:35;1.00;24.90
3701;DHT22;1866;48.374;10.766;2023-03-16T07:15:03;1.00;22.50
3701;DHT22;1866;48.374;10.766;2023-03-16T07:17:30;1.00;18.20
3701;DHT22;1866;48.374;10.766;2023-03-16T07:19:57;1.20;32.40
3701;DHT22;1866;48.374;10.766;2023-03-16T07:22:24;1.30;19.80
3701;DHT22;1866;48.374;10.766;2023-03-16T07:24:52;1.30;1.00
3701;DHT22;1866;48.374;10.766;2023-03-16T07:27:22;1.40;1.00
3701;DHT22;1866;48.374;10.766;2023-03-16T07:29:49;1.60;1.00
3701;DHT22;1866;48.374;10.766;2023-03-16T07:32:16;1.80;1.00
3701;DHT22;1866;48.374;10.766;2023-03-16T07:34:44;1.70;1.00
3701;DHT22;1866;48.374;10.766;2023-03-16T07:37:11;1.80;1.00
3701;DHT22;1866;48.374;10.766;2023-03-16T07:39:38;1.90;1.00
3701;DHT22;1866;48.374;10.766;2023-03-16T07:42:06;2.00;1.00
3701;DHT22;1866;48.374;10.766;2023-03-16T07:44:33;2.00;1.00
3701;DHT22;1866;48.374;10.766;2023-03-16T07:47:00;2.20;1.00
3701;DHT22;1866;48.374;10.766;2023-03-16T07:49:27;2.30;1.00
3701;DHT22;1866;48.374;10.766;2023-03-16T07:51:54;2.50;1.00
3701;DHT22;1866;48.374;10.766;2023-03-16T07:54:20;2.60;1.00
3701;DHT22;1866;48.374;10.766;2023-03-16T07:56:48;2.60;1.00
3701;DHT22;1866;48.374;10.766;2023-03-16T07:59:17;2.60;1.00
3701;DHT22;1866;48.374;10.766;2023-03-16T08:01:45;2.70;1.00
3701;DHT22;1866;48.374;10.766;2023-03-16T08:04:12;2.90;1.00
3701;DHT22;1866;48.374;10.766;2023-03-16T08:06:39;2.90;1.00
3701;DHT22;1866;48.374;10.766;2023-03-16T08:09:06;2.90;1.00
3701;DHT22;1866;48.374;10.766;2023-03-16T08:11:33;3.20;1.00
3701;DHT22;1866;48.374;10.766;2023-03-16T08:14:00;3.40;1.00
3701;DHT22;1866;48.374;10.766;2023-03-16T08:16:29;3.50;1.00
3701;DHT22;1866;48.374;10.766;2023-03-16T08:18:56;3.50;1.00
3701;DHT22;1866;48.374;10.766;2023-03-16T08:21:24;3.50;1.00
3701;DHT22;1866;48.374;10.766;2023-03-16T08:23:51;3.70;1.00
3701;DHT22;1866;48.374;10.766;2023-03-16T08:26:19;3.70;1.00
3701;DHT22;1866;48.374;10.766;2023-03-16T08:28:49;3.90;1.00
3701;DHT22;1866;48.374;10.766;2023-03-16T08:31:17;3.80;1.00
3701;DHT22;1866;48.374;10.766;2023-03-16T08:33:46;3.90;1.00
3701;DHT22;1866;48.374;10.766;2023-03-16T08:36:15;4.20;1.00
3701;DHT22;1866;48.374;10.766;2023-03-16T08:38:42;4.10;1.00
3701;DHT22;1866;48.374;10.766;2023-03-16T08:41:09;3.90;1.00
3701;DHT22;1866;48.374;10.766;2023-03-16T08:43:37;3.90;1.00
3701;DHT22;1866;48.374;10.766;2023-03-16T08:46:04;4.20;1.00
3701;DHT22;1866;48.374;10.766;2023-03-16T08:48:31;4.30;1.00
3701;DHT22;1866;48.374;10.766;2023-03-16T08:51:02;4.40;1.00
3701;DHT22;1866;48.374;10.766;2023-03-16T08:53:29;4.50;1.00
3701;DHT22;1866;48.374;10.766;2023-03-16T08:56:00;4.80;1.00
3701;DHT22;1866;48.374;10.766;2023-03-16T08:58:29;4.80;1.00
3701;DHT22;1866;48.374;10.766;2023-03-16T09:00:57;4.80;1.00
3701;DHT22;1866;48.374;10.766;2023-03-16T09:03:25;4.70;1.00
3701;DHT22;1866;48.374;10.766;2023-03-16T09:06:00;4.80;1.00
3701;DHT22;1866;48.374;10.766;2023-03-16T09:08:28;5.10;1.00
3701;DHT22;1866;48.374;10.766;2023-03-16T09:10:59;5.10;1.00
3701;DHT22;1866;48.374;10.766;2023-03-16T09:13:26;5.20;1.00
3701;DHT22;1866;48.374;10.766;2023-03-16T09:15:53;5.40;1.00
3701;DHT22;1866;48.374;10.766;2023-03-16T09:18:21;5.40;1.00
3701;DHT22;1866;48.374;10.766;2023-03-16T09:20:48;5.40;1.00
3701;DHT22;1866;48.374;10.766;2023-03-16T09:23:15;5.70;1.00
3701;DHT22;1866;48.374;10.766;2023-03-16T09:25:44;5.40;1.00
3701;DHT22;1866;48.374;10.766;2023-03-16T09:28:11;5.60;1.00
3701;DHT22;1866;48.374;10.766;2023-03-16T09:30:37;5.60;1.00
3701;DHT22;1866;48.374;10.766;2023-03-16T09:33:05;5.40;1.00
3701;DHT22;1866;48.374;10.766;2023-03-16T09:35:32;5.70;1.00
3701;DHT22;1866;48.374;10.766;2023-03-16T09:37:59;5.80;1.00
3701;DHT22;1866;48.374;10.766;2023-03-16T09:40:27;6.20;1.00
3701;DHT22;1866;48.374;10.766;2023-03-16T09:45:58;6.30;1.00
3701;DHT22;1866;48.374;10.766;2023-03-16T09:48:32;6.70;1.00
3701;DHT22;1866;48.374;10.766;2023-03-16T09:51:02;6.50;1.00
3701;DHT22;1866;48.374;10.766;2023-03-16T09:53:32;6.40;1.00
3701;DHT22;1866;48.374;10.766;2023-03-16T09:56:01;6.40;1.00
3701;DHT22;1866;48.374;10.766;2023-03-16T09:58:30;6.70;1.00
3701;DHT22;1866;48.374;10.766;2023-03-16T10:01:05;6.80;1.00
3701;DHT22;1866;48.374;10.766;2023-03-16T10:03:51;7.10;1.00
3701;DHT22;1866;48.374;10.766;2023-03-16T10:06:21;7.10;1.00
3701;DHT22;1866;48.374;10.766;2023-03-16T10:08:53;7.20;1.00
3701;DHT22;1866;48.374;10.766;2023-03-16T10:11:30;7.10;1.00
3701;DHT22;1866;48.374;10.766;2023-03-16T10:14:02;7.30;1.00
3701;DHT22;1866;48.374;10.766;2023-03-16T10:16:37;7.60;1.00
3701;DHT22;1866;48.374;10.766;2023-03-16T10:19:10;7.10;1.00
3701;DHT22;1866;48.374;10.766;2023-03-16T10:21:40;7.40;1.00
3701;DHT22;1866;48.374;10.766;2023-03-16T10:24:15;7.20;1.00
3701;DHT22;1866;48.374;10.766;2023-03-16T10:26:52;7.30;1.00
3701;DHT22;1866;48.374;10.766;2023-03-16T10:29:21;7.20;1.00
3701;DHT22;1866;48.374;10.766;2023-03-16T10:31:48;7.50;1.00
3701;DHT22;1866;48.374;10.766;2023-03-16T10:34:15;7.40;1.00
3701;DHT22;1866;48.374;10.766;2023-03-16T10:36:43;7.40;1.00
3701;DHT22;1866;48.374;10.766;2023-03-16T10:39:13;7.60;1.00
3701;DHT22;1866;48.374;10.766;2023-03-16T10:41:42;7.60;1.00
3701;DHT22;1866;48.374;10.766;2023-03-16T10:44:11;7.80;1.00
3701;DHT22;1866;48.374;10.766;2023-03-16T10:46:42;7.60;1.00
3701;DHT22;1866;48.374;10.766;2023-03-16T10:49:21;7.80;1.00
3701;DHT22;1866;48.374;10.766;2023-03-16T10:51:52;7.90;1.00
3701;DHT22;1866;48.374;10.766;2023-03-16T10:54:26;7.90;1.00
3701;DHT22;1866;48.374;10.766;2023-03-16T10:56:54;8.00;1.00
3701;DHT22;1866;48.374;10.766;2023-03-16T10:59:27;8.30;1.00
3701;DHT22;1866;48.374;10.766;2023-03-16T11:01:58;8.30;1.00
3701;DHT22;1866;48.374;10.766;2023-03-16T11:04:30;8.20;1.00
3701;DHT22;1866;48.374;10.766;2023-03-16T11:06:57;8.40;1.00
3701;DHT22;1866;48.374;10.766;2023-03-16T11:09:25;8.30;1.00
3701;DHT22;1866;48.374;10.766;2023-03-16T11:11:58;8.20;1.00
3701;DHT22;1866;48.374;10.766;2023-03-16T11:14:26;7.90;1.00
3701;DHT22;1866;48.374;10.766;2023-03-16T11:16:59;7.90;1.00
3701;DHT22;1866;48.374;10.766;2023-03-16T11:19:30;8.30;1.00
3701;DHT22;1866;48.374;10.766;2023-03-16T11:22:01;8.10;1.00
3701;DHT22;1866;48.374;10.766;2023-03-16T11:24:39;8.30;1.00
3701;DHT22;1866;48.374;10.766;2023-03-16T11:27:16;8.60;1.00
3701;DHT22;1866;48.374;10.766;2023-03-16T11:29:55;8.30;1.00
3701;DHT22;1866;48.374;10.766;2023-03-16T11:32:28;8.40;1.00
3701;DHT22;1866;48.374;10.766;2023-03-16T11:34:57;8.70;1.00
3701;DHT22;1866;48.374;10.766;2023-03-16T11:37:35;8.90;1.00
3701;DHT22;1866;48.374;10.766;2023-03-16T11:40:13;8.70;1.00
3701;DHT22;1866;48.374;10.766;2023-03-16T11:42:53;9.10;1.00
3701;DHT22;1866;48.374;10.766;2023-03-16T11:45:27;9.00;1.00
3701;DHT22;1866;48.374;10.766;2023-03-16T11:50:59;9.00;1.00
3701;DHT22;1866;48.374;10.766;2023-03-16T11:53:48;9.00;1.00
3701;DHT22;1866;48.374;10.766;2023-03-16T11:56:29;8.80;1.00
3701;DHT22;1866;48.374;10.766;2023-03-16T11:59:26;8.70;1.00
3701;DHT22;1866;48.374;10.766;2023-03-16T12:02:15;8.30;1.00
3701;DHT22;1866;48.374;10.766;2023-03-16T12:04:55;8.20;1.00
3701;DHT22;1866;48.374;10.766;2023-03-16T12:07:36;8.50;1.00
3701;DHT22;1866;48.374;10.766;2023-03-16T12:10:13;8.50;1.00
3701;DHT22;1866;48.374;10.766;2023-03-16T12:12:52;8.60;1.00
3701;DHT22;1866;48.374;10.766;2023-03-16T12:15:31;8.50;1.00
3701;DHT22;1866;48.374;10.766;2023-03-16T12:18:01;8.50;1.00
3701;DHT22;1866;48.374;10.766;2023-03-16T12:20:36;8.50;1.00
3701;DHT22;1866;48.374;10.766;2023-03-16T12:23:11;8.50;1.00
3701;DHT22;1866;48.374;10.766;2023-03-16T12:25:41;8.30;1.00
3701;DHT22;1866;48.374;10.766;2023-03-16T12:28:15;8.50;1.00
3701;DHT22;1866;48.374;10.766;2023-03-16T12:30:49;8.60;1.00
3701;DHT22;1866;48.374;10.766;2023-03-16T12:33:24;8.60;1.00
3701;DHT22;1866;48.374;10.766;2023-03-16T12:36:00;8.30;1.00
3701;DHT22;1866;48.374;10.766;2023-03-16T12:38:37;8.20;1.00
3701;DHT22;1866;48.374;10.766;2023-03-16T12:41:15;8.30;1.00
3701;DHT22;1866;48.374;10.766;2023-03-16T12:43:52;8.60;1.00
3701;DHT22;1866;48.374;10.766;2023-03-16T12:46:26;8.50;1.00
3701;DHT22;1866;48.374;10.766;2023-03-16T12:48:57;8.60;1.00
3701;DHT22;1866;48.374;10.766;2023-03-16T12:51:34;8.30;1.00
3701;DHT22;1866;48.374;10.766;2023-03-16T12:54:01;8.30;1.00
3701;DHT22;1866;48.374;10.766;2023-03-16T12:56:29;8.70;1.00
3701;DHT22;1866;48.374;10.766;2023-03-16T12:58:58;8.60;1.00
3701;DHT22;1866;48.374;10.766;2023-03-16T13:01:27;8.80;1.00
3701;DHT22;1866;48.374;10.766;2023-03-16T13:04:00;8.70;1.00
3701;DHT22;1866;48.374;10.766;2023-03-16T13:06:33;9.10;1.00
3701;DHT22;1866;48.374;10.766;2023-03-16T13:09:02;9.10;1.00
3701;DHT22;1866;48.374;10.766;2023-03-16T13:11:39;9.20;1.00
3701;DHT22;1866;48.374;10.766;2023-03-16T13:14:08;9.40;1.00
3701;DHT22;1866;48.374;10.766;2023-03-16T13:16:41;9.10;1.00
3701;DHT22;1866;48.374;10.766;2023-03-16T13:19:23;9.10;1.00
3701;DHT22;1866;48.374;10.766;2023-03-16T13:22:02;8.90;1.00
3701;DHT22;1866;48.374;10.766;2023-03-16T13:24:37;9.10;1.00
3701;DHT22;1866;48.374;10.766;2023-03-16T13:27:14;9.60;1.00
3701;DHT22;1866;48.374;10.766;2023-03-16T13:29:52;9.10;1.00
3701;DHT22;1866;48.374;10.766;2023-03-16T13:32:20;9.20;1.00
3701;DHT22;1866;48.374;10.766;2023-03-16T13:34:49;9.10;1.00
3701;DHT22;1866;48.374;10.766;2023-03-16T13:37:20;9.20;1.00
3701;DHT22;1866;48.374;10.766;2023-03-16T13:39:52;9.50;1.00
3701;DHT22;1866;48.374;10.766;2023-03-16T13:42:20;9.60;1.00
3701;DHT22;1866;48.374;10.766;2023-03-16T13:44:50;9.60;1.00
3701;DHT22;1866;48.374;10.766;2023-03-16T13:47:18;9.30;1.00
3701;DHT22;1866;48.374;10.766;2023-03-16T13:49:46;9.20;1.00
3701;DHT22;1866;48.374;10.766;2023-03-16T13:52:23;9.60;1.00
3701;DHT22;1866;48.374;10.766;2023-03-16T13:54:51;9.80;1.00
3701;DHT22;1866;48.374;10.766;2023-03-16T13:57:21;9.50;1.00
3701;DHT22;1866;48.374;10.766;2023-03-16T13:59:49;9.40;1.00
3701;DHT22;1866;48.374;10.766;2023-03-16T14:02:22;9.40;1.00
3701;DHT22;1866;48.374;10.766;2023-03-16T14:04:49;9.40;1.00
3701;DHT22;1866;48.374;10.766;2023-03-16T14:07:18;9.70;1.00
3701;DHT22;1866;48.374;10.766;2023-03-16T14:09:47;9.70;1.00
3701;DHT22;1866;48.374;10.766;2023-03-16T14:12:17;9.90;1.00
3701;DHT22;1866;48.374;10.766;2023-03-16T14:14:46;9.60;1.00
3701;DHT22;1866;48.374;10.766;2023-03-16T14:17:17;9.60;1.00
3701;DHT22;1866;48.374;10.766;2023-03-16T14:19:46;9.30;1.00
3701;DHT22;1866;48.374;10.766;2023-03-16T14:22:16;9.50;1.00
3701;DHT22;1866;48.374;10.766;2023-03-16T14:24:50;9.60;1.00
3701;DHT22;1866;48.374;10.766;2023-03-16T14:27:21;9.70;1.00
3701;DHT22;1866;48.374;10.766;2023-03-16T14:29:57;9.80;1.00
3701;DHT22;1866;48.374;10.766;2023-03-16T14:32:26;9.90;1.00
3701;DHT22;1866;48.374;10.766;2023-03-16T14:35:01;9.80;1.00
3701;DHT22;1866;48.374;10.766;2023-03-16T14:37:35;9.60;1.00
3701;DHT22;1866;48.374;10.766;2023-03-16T14:40:06;9.50;1.00
3701;DHT22;1866;48.374;10.766;2023-03-16T14:42:34;9.80;1.00
3701;DHT22;1866;48.374;10.766;2023-03-16T14:45:02;9.80;1.00
3701;DHT22;1866;48.374;10.766;2023-03-16T14:47:41;9.40;1.00
3701;DHT22;1866;48.374;10.766;2023-03-16T14:50:12;9.60;1.00
3701;DHT22;1866;48.374;10.766;2023-03-16T14:52:41;9.50;1.00
3701;DHT22;1866;48.374;10.766;2023-03-16T14:55:13;9.40;1.00
3701;DHT22;1866;48.374;10.766;2023-03-16T14:57:41;9.50;1.00
3701;DHT22;1866;48.374;10.766;2023-03-16T15:00:11;9.50;1.00
3701;DHT22;1866;48.374;10.766;2023-03-16T15:02:41;9.40;1.00
3701;DHT22;1866;48.374;10.766;2023-03-16T15:05:09;9.40;1.00
3701;DHT22;1866;48.374;10.766;2023-03-16T15:07:42;9.40;1.00
3701;DHT22;1866;48.374;10.766;2023-03-16T15:10:21;9.30;1.00
3701;DHT22;1866;48.374;10.766;2023-03-16T15:12:48;9.40;1.00
3701;DHT22;1866;48.374;10.766;2023-03-16T15:15:21;9.30;1.00
3701;DHT22;1866;48.374;10.766;2023-03-16T15:17:50;9.20;1.00
3701;DHT22;1866;48.374;10.766;2023-03-16T15:20:19;9.30;1.00
3701;DHT22;1866;48.374;10.766;2023-03-16T15:22:48;9.20;1.00
3701;DHT22;1866;48.374;10.766;2023-03-16T15:25:31;9.00;1.00
3701;DHT22;1866;48.374;10.766;2023-03-16T15:28:02;9.10;1.00
3701;DHT22;1866;48.374;10.766;2023-03-16T15:30:30;9.10;1.00
3701;DHT22;1866;48.374;10.766;2023-03-16T15:32:57;9.00;1.00
3701;DHT22;1866;48.374;10.766;2023-03-16T15:35:24;9.00;1.00
3701;DHT22;1866;48.374;10.766;2023-03-16T15:37:51;9.00;1.00
3701;DHT22;1866;48.374;10.766;2023-03-16T15:40:22;9.00;1.00
3701;DHT22;1866;48.374;10.766;2023-03-16T15:42:50;9.00;1.00
3701;DHT22;1866;48.374;10.766;2023-03-16T15:45:18;9.00;1.00
3701;DHT22;1866;48.374;10.766;2023-03-16T15:47:46;8.90;1.00
3701;DHT22;1866;48.374;10.766;2023-03-16T15:50:15;9.00;1.00
3701;DHT22;1866;48.374;10.766;2023-03-16T15:52:44;9.00;1.00
3701;DHT22;1866;48.374;10.766;2023-03-16T15:55:18;8.90;1.00
3701;DHT22;1866;48.374;10.766;2023-03-16T15:57:48;9.00;1.00
3701;DHT22;1866;48.374;10.766;2023-03-16T16:00:24;9.10;1.00
3701;DHT22;1866;48.374;10.766;2023-03-16T16:02:52;9.00;1.00
3701;DHT22;1866;48.374;10.766;2023-03-16T16:05:19;9.00;1.00
3701;DHT22;1866;48.374;10.766;2023-03-16T16:07:47;8.90;1.00
3701;DHT22;1866;48.374;10.766;2023-03-16T16:10:14;8.90;1.00
3701;DHT22;1866;48.374;10.766;2023-03-16T16:12:42;9.00;1.00
3701;DHT22;1866;48.374;10.766;2023-03-16T16:15:20;9.10;1.00
3701;DHT22;1866;48.374;10.766;2023-03-16T16:17:50;8.90;1.00
3701;DHT22;1866;48.374;10.766;2023-03-16T16:20:19;8.90;1.00
3701;DHT22;1866;48.374;10.766;2023-03-16T16:22:47;8.80;1.00
3701;DHT22;1866;48.374;10.766;2023-03-16T16:25:14;8.80;1.00